Meteo Giornale » Osservazioni meteo Stati Uniti (USA) » Bremerton National

ore: 22:56 - Osservazioni Meteo Bremerton National
Lat. 47° 30' N Lon. 122° 45' W Alt. 147 metri s.l.m.

sereno

17 °C

Sereno

Temp. 24 Ore

12 °C

24 °C

Nord

5.5 Km/h

Dew point 10 °C

Umidità 63 %

Visibilità  10 Km

Il sole sorge alle ore 06:28

Il sole tramonta alle ore 19:53

Data e Ora Cielo e Fenomeni T °C DP °C Um. % Pres. hPa Vis. km Vento km/h
Oggi h: 22:56 sereno Sereno 17 10 63 1009 10 N 5.5
Oggi h: 21:56 sereno Sereno 17 11 67 1009 10 E/NE 7.4
Oggi h: 20:56 sereno Sereno 18 11 63 1009 10 E/NE 7.4
Oggi h: 19:56 sereno Sereno 19 11 59 1008 10 NE 14.8
Oggi h: 18:56 sereno Sereno 22 12 53 1008 10 NE 16.7
Oggi h: 17:56 sereno Sereno 23 12 49 1008 10 NE 18.5
Oggi h: 16:56 sereno Sereno 24 12 47 1009 10 E/NE 16.7
Oggi h: 15:56 sereno Sereno 24 12 47 0 10 N 0
Oggi h: 14:56 sereno Sereno 24 12 47 1010 10 N/NE 18.5
Oggi h: 13:56 sereno Sereno 24 11 43 0 10 N 0
Oggi h: 12:56 sereno Sereno 23 11 46 1011 10 N/NE 18.5
Oggi h: 11:56 sereno Sereno 21 11 52 1012 10 NE 22.2
Oggi h: 10:56 sereno Sereno 20 11 56 1013 10 NE 20.3
Oggi h: 09:56 sereno Sereno 18 12 67 1013 10 NE 20.3
Oggi h: 08:56 sereno Sereno 16 12 77 1014 10 NE 14.8
Oggi h: 07:56 sereno Sereno 14 12 87 1014 10 NE 9.3
Oggi h: 06:56 sereno Sereno 12 11 93 1014 10 N 0
Oggi h: 05:56 sereno Sereno 12 12 100 1014 10 E/NE 9.3
Oggi h: 04:56 sereno Sereno 12 12 100 1015 10 E/NE 9.3
Oggi h: 03:56 sereno Sereno 13 12 93 1015 10 E/NE 9.3
Oggi h: 02:56 sereno Sereno 13 12 93 0 10 NE 13
Oggi h: 01:56 sereno Sereno 14 12 87 1016 10 NE 13
Oggi h: 00:56 sereno Sereno 15 11 76 1016 10 NE 13
Ieri h: 23:56 sereno Sereno 15 11 76 1017 10 NE 13